Time;durP1;ratioP1;P1;durP2;ratioP2;P2;SDS_P1;SDS_P2;PMS_P1;PMS_P2;Temp;Humidity;BMP_temperature;BMP_pressure;BME280_temperature;BME280_humidity;BME280_pressure;Samples;Min_cycle;Max_cycle;Signal;HPM_P1;HPM_P2
2022/03/19 00:02:03;;;;;;;;;;;18.60;58.70;;;;;;5034089;28;934;-70
2022/03/19 00:04:28;;;;;;;;;;;18.60;58.70;;;;;;5035436;28;828;-71
2022/03/19 00:06:54;;;;;;;;;;;18.60;58.70;;;;;;5035096;28;1278;-71
2022/03/19 00:09:19;;;;;;;;;;;18.60;58.80;;;;;;5050901;28;1069;-72
2022/03/19 00:11:45;;;;;;;;;;;18.60;58.80;;;;;;5035164;28;1898;-72
2022/03/19 00:14:12;;;;;;;;;;;18.60;58.80;;;;;;5035282;28;1246;-71
2022/03/19 00:16:38;;;;;;;;;;;18.60;58.80;;;;;;5034965;28;1209;-74
2022/03/19 00:19:03;;;;;;;;;;;18.50;58.80;;;;;;5035153;28;864;-73
2022/03/19 00:21:29;;;;;;;;;;;18.50;58.80;;;;;;5050963;28;790;-74
2022/03/19 00:23:54;;;;;;;;;;;18.50;58.80;;;;;;5050576;28;788;-74
2022/03/19 00:26:20;;;;;;;;;;;18.50;58.80;;;;;;5050179;28;1219;-73
2022/03/19 00:28:45;;;;;;;;;;;18.50;58.90;;;;;;5050219;28;799;-72
2022/03/19 00:31:10;;;;;;;;;;;18.50;58.90;;;;;;5050553;28;1914;-71
2022/03/19 00:33:36;;;;;;;;;;;18.50;58.90;;;;;;5034961;28;831;-72
2022/03/19 00:36:01;;;;;;;;;;;18.50;58.90;;;;;;5034650;28;1314;-73
2022/03/19 00:38:27;;;;;;;;;;;18.50;58.90;;;;;;5050543;28;883;-73
2022/03/19 00:40:52;;;;;;;;;;;18.50;58.90;;;;;;5033721;28;1031;-74
2022/03/19 00:43:19;;;;;;;;;;;18.50;59.00;;;;;;5034761;28;879;-74
2022/03/19 00:45:48;;;;;;;;;;;18.50;58.90;;;;;;5049681;28;1208;-74
2022/03/19 00:48:14;;;;;;;;;;;18.50;59.00;;;;;;5034748;28;898;-73
2022/03/19 00:50:39;;;;;;;;;;;18.50;59.00;;;;;;5050257;28;890;-73
2022/03/19 00:53:05;;;;;;;;;;;18.50;59.00;;;;;;5034583;28;1898;-74
2022/03/19 00:55:30;;;;;;;;;;;18.50;59.00;;;;;;5034536;28;1334;-71
2022/03/19 00:57:55;;;;;;;;;;;18.50;59.00;;;;;;5034376;28;1223;-72
2022/03/19 01:00:24;;;;;;;;;;;18.50;59.00;;;;;;5033275;28;1263;-71
2022/03/19 01:02:50;;;;;;;;;;;18.50;59.00;;;;;;5033160;28;962;-71
2022/03/19 01:05:16;;;;;;;;;;;18.40;59.00;;;;;;5034467;28;879;-72
2022/03/19 01:07:42;;;;;;;;;;;18.40;59.00;;;;;;5034165;28;1279;-72
2022/03/19 01:10:08;;;;;;;;;;;18.40;59.00;;;;;;5033093;28;796;-73
2022/03/19 01:12:33;;;;;;;;;;;18.40;59.10;;;;;;5034298;28;1977;-72
2022/03/19 01:14:59;;;;;;;;;;;18.40;59.10;;;;;;5034202;28;1103;-72
2022/03/19 01:17:24;;;;;;;;;;;18.40;59.10;;;;;;5049491;28;1195;-73
2022/03/19 01:19:53;;;;;;;;;;;18.40;59.10;;;;;;5049702;28;812;-72
2022/03/19 01:22:19;;;;;;;;;;;18.40;59.10;;;;;;5034121;28;927;-72
2022/03/19 01:24:44;;;;;;;;;;;18.40;59.70;;;;;;5049464;28;835;-72
2022/03/19 01:27:10;;;;;;;;;;;18.40;59.10;;;;;;5049223;28;1225;-72
2022/03/19 01:29:35;;;;;;;;;;;18.40;59.10;;;;;;5034036;28;808;-72
2022/03/19 01:32:01;;;;;;;;;;;18.40;59.10;;;;;;5033754;28;1981;-72
2022/03/19 01:34:26;;;;;;;;;;;18.40;59.20;;;;;;5033789;28;1080;-72
2022/03/19 01:36:53;;;;;;;;;;;18.40;59.20;;;;;;5033612;28;1349;-72
2022/03/19 01:39:19;;;;;;;;;;;18.40;59.20;;;;;;5033096;28;851;-72
2022/03/19 01:41:45;;;;;;;;;;;18.40;59.20;;;;;;5033760;28;799;-72
2022/03/19 01:44:16;;;;;;;;;;;18.40;59.20;;;;;;5049124;28;804;-72
2022/03/19 01:47:01;;;;;;;;;;;18.40;59.20;;;;;;5033417;28;1296;-73
2022/03/19 01:49:27;;;;;;;;;;;18.40;59.20;;;;;;5048998;28;973;-73
2022/03/19 01:51:52;;;;;;;;;;;18.40;59.20;;;;;;5033378;28;1973;-70
2022/03/19 01:54:22;;;;;;;;;;;18.30;59.20;;;;;;5033501;28;871;-71
2022/03/19 01:56:47;;;;;;;;;;;18.40;59.20;;;;;;5033215;28;1237;-71
2022/03/19 01:59:13;;;;;;;;;;;18.30;59.20;;;;;;5048822;28;930;-70
2022/03/19 02:01:38;;;;;;;;;;;18.40;59.20;;;;;;5033378;28;954;-70
2022/03/19 02:04:04;;;;;;;;;;;18.30;59.20;;;;;;5033210;28;895;-71
2022/03/19 02:06:29;;;;;;;;;;;18.30;59.20;;;;;;5048262;28;1199;-71
2022/03/19 02:08:54;;;;;;;;;;;18.30;59.20;;;;;;5048579;28;887;-70
2022/03/19 02:11:20;;;;;;;;;;;18.40;59.30;;;;;;5048610;28;1957;-70
2022/03/19 02:13:46;;;;;;;;;;;18.30;59.20;;;;;;5033374;28;1205;-70
2022/03/19 02:16:12;;;;;;;;;;;18.40;59.30;;;;;;5032796;28;1197;-75
2022/03/19 02:18:37;;;;;;;;;;;18.30;59.30;;;;;;5048392;28;833;-76
2022/03/19 02:21:02;;;;;;;;;;;18.30;59.30;;;;;;5033410;28;955;-74
2022/03/19 02:26:12;;;;;;;;;;;18.40;59.40;;;;;;5032822;28;1233;-72
2022/03/19 02:28:37;;;;;;;;;;;18.30;59.30;;;;;;5048275;28;1172;-74
2022/03/19 02:31:03;;;;;;;;;;;18.30;59.30;;;;;;5031711;28;1902;-74
2022/03/19 02:33:28;;;;;;;;;;;18.30;59.30;;;;;;5031585;28;804;-74
2022/03/19 02:35:54;;;;;;;;;;;18.30;59.30;;;;;;5032567;28;1243;-74
2022/03/19 02:38:19;;;;;;;;;;;18.30;59.40;;;;;;5031712;28;867;-74
2022/03/19 02:40:45;;;;;;;;;;;18.30;59.30;;;;;;5033069;28;938;-74
2022/03/19 02:43:10;;;;;;;;;;;18.30;59.30;;;;;;5032958;28;867;-74
2022/03/19 02:45:35;;;;;;;;;;;18.30;59.20;;;;;;5047783;28;1200;-73
2022/03/19 02:48:01;;;;;;;;;;;18.40;59.20;;;;;;5032670;28;1315;-73
2022/03/19 02:50:33;;;;;;;;;;;18.40;59.10;;;;;;5033721;28;893;-73
2022/03/19 02:52:59;;;;;;;;;;;18.40;59.00;;;;;;5035557;28;1898;-72
2022/03/19 02:55:25;;;;;;;;;;;18.50;59.00;;;;;;5052272;28;990;-72
2022/03/19 02:57:50;;;;;;;;;;;18.50;58.90;;;;;;5036555;28;1175;-72
2022/03/19 03:00:16;;;;;;;;;;;18.60;58.80;;;;;;5035406;28;947;-72
2022/03/19 03:02:41;;;;;;;;;;;18.50;58.60;;;;;;5051993;28;807;-72
2022/03/19 03:05:06;;;;;;;;;;;18.60;58.60;;;;;;5052178;28;823;-72
2022/03/19 03:07:32;;;;;;;;;;;18.60;58.50;;;;;;5035992;28;1260;-72
2022/03/19 03:09:57;;;;;;;;;;;18.70;58.50;;;;;;5035948;28;1264;-72
2022/03/19 03:12:24;;;;;;;;;;;18.70;58.30;;;;;;5035973;28;1898;-73
2022/03/19 03:14:49;;;;;;;;;;;18.70;58.30;;;;;;5035902;28;1283;-72
2022/03/19 03:17:15;;;;;;;;;;;18.70;58.20;;;;;;5022188;28;1236;-70
2022/03/19 03:19:41;;;;;;;;;;;18.80;58.20;;;;;;5027292;28;1208;-72
2022/03/19 03:22:08;;;;;;;;;;;18.80;58.10;;;;;;5048473;28;1258;-72
2022/03/19 03:24:34;;;;;;;;;;;18.80;58.10;;;;;;5051129;28;1220;-72
2022/03/19 03:26:59;;;;;;;;;;;18.80;58.00;;;;;;5035661;28;1321;-72
2022/03/19 03:29:24;;;;;;;;;;;18.80;58.00;;;;;;5034886;28;903;-72
2022/03/19 03:31:50;;;;;;;;;;;18.90;58.00;;;;;;5036670;28;1906;-73
2022/03/19 03:34:15;;;;;;;;;;;18.90;57.90;;;;;;5036142;28;915;-71
2022/03/19 03:36:41;;;;;;;;;;;18.90;57.90;;;;;;5035348;28;1394;-72
2022/03/19 03:39:06;;;;;;;;;;;18.90;57.80;;;;;;5034826;28;890;-72
2022/03/19 03:41:32;;;;;;;;;;;18.90;57.80;;;;;;5035951;28;523;-72
2022/03/19 03:43:57;;;;;;;;;;;18.90;57.70;;;;;;5035647;28;694;-72
2022/03/19 03:46:22;;;;;;;;;;;18.90;57.70;;;;;;5035438;28;1200;-72
2022/03/19 03:48:48;;;;;;;;;;;18.90;57.70;;;;;;5034579;28;863;-72
2022/03/19 03:51:13;;;;;;;;;;;18.90;57.70;;;;;;5036033;28;1898;-72
2022/03/19 03:53:39;;;;;;;;;;;19.00;57.70;;;;;;5034640;28;1175;-72
2022/03/19 03:56:05;;;;;;;;;;;19.00;57.70;;;;;;5050841;28;1307;-72
2022/03/19 03:58:31;;;;;;;;;;;19.00;57.70;;;;;;5034468;28;1287;-71
2022/03/19 04:00:56;;;;;;;;;;;19.00;57.60;;;;;;5035511;28;878;-72
2022/03/19 04:03:22;;;;;;;;;;;19.00;57.60;;;;;;5034991;28;784;-72
2022/03/19 04:05:47;;;;;;;;;;;19.00;57.60;;;;;;5035145;28;1310;-73
2022/03/19 04:08:13;;;;;;;;;;;19.00;57.60;;;;;;5035542;28;1014;-71
2022/03/19 04:10:38;;;;;;;;;;;19.00;57.60;;;;;;5035413;28;885;-72
2022/03/19 04:13:04;;;;;;;;;;;19.00;57.50;;;;;;5035380;28;1955;-72
2022/03/19 04:15:29;;;;;;;;;;;19.00;57.50;;;;;;5034963;28;1131;-72
2022/03/19 04:17:54;;;;;;;;;;;19.00;57.50;;;;;;5035080;28;1178;-72
2022/03/19 04:20:22;;;;;;;;;;;19.00;57.50;;;;;;5035197;28;801;-72
2022/03/19 04:22:48;;;;;;;;;;;19.00;57.50;;;;;;5035364;28;937;-72
2022/03/19 04:25:14;;;;;;;;;;;19.00;57.50;;;;;;5035205;28;946;-72
2022/03/19 04:27:40;;;;;;;;;;;19.00;57.40;;;;;;5050422;28;1189;-72
2022/03/19 04:30:06;;;;;;;;;;;19.10;57.50;;;;;;5050349;28;835;-72
2022/03/19 04:32:31;;;;;;;;;;;19.10;57.50;;;;;;5035282;28;1911;-72
2022/03/19 04:34:57;;;;;;;;;;;19.00;57.40;;;;;;5035100;28;911;-72
2022/03/19 04:37:22;;;;;;;;;;;19.10;57.40;;;;;;5050110;28;1357;-73
2022/03/19 04:39:48;;;;;;;;;;;19.10;57.40;;;;;;5034940;28;819;-72
2022/03/19 04:42:13;;;;;;;;;;;19.10;57.40;;;;;;5035156;28;604;-72
2022/03/19 04:44:39;;;;;;;;;;;19.10;57.40;;;;;;5034737;28;780;-72
2022/03/19 04:47:04;;;;;;;;;;;19.10;57.40;;;;;;5034510;28;1190;-72
2022/03/19 04:49:30;;;;;;;;;;;19.10;57.40;;;;;;5034681;28;1002;-72
2022/03/19 04:51:55;;;;;;;;;;;19.10;57.40;;;;;;5034625;28;1894;-72
2022/03/19 04:54:20;;;;;;;;;;;19.10;57.40;;;;;;5050049;28;839;-72
2022/03/19 04:56:46;;;;;;;;;;;19.10;57.40;;;;;;5049811;28;1290;-71
2022/03/19 04:59:11;;;;;;;;;;;19.00;57.40;;;;;;5049910;28;912;-72
2022/03/19 05:01:37;;;;;;;;;;;19.10;57.40;;;;;;5049794;28;1433;-72
2022/03/19 05:04:02;;;;;;;;;;;19.10;57.40;;;;;;5049023;28;2163;-70
2022/03/19 05:06:28;;;;;;;;;;;19.10;57.40;;;;;;5031064;28;1873;-69
2022/03/19 05:11:37;;;;;;;;;;;19.10;57.40;;;;;;5027714;28;1894;-70
2022/03/19 05:14:04;;;;;;;;;;;19.10;57.40;;;;;;5042652;28;1215;-70
2022/03/19 05:16:30;;;;;;;;;;;19.10;57.90;;;;;;5049120;28;1187;-70
2022/03/19 05:18:55;;;;;;;;;;;19.10;57.40;;;;;;5034346;28;879;-69
2022/03/19 05:21:20;;;;;;;;;;;19.10;57.40;;;;;;5034144;28;707;-69
2022/03/19 05:23:47;;;;;;;;;;;19.10;57.40;;;;;;5034176;28;670;-69
2022/03/19 05:26:13;;;;;;;;;;;19.10;57.40;;;;;;5033663;28;1220;-70
2022/03/19 05:28:38;;;;;;;;;;;19.10;57.40;;;;;;5033892;28;1006;-70
2022/03/19 05:31:03;;;;;;;;;;;19.10;58.00;;;;;;5030286;28;1691;-70
2022/03/19 05:36:13;;;;;;;;;;;19.10;57.40;;;;;;5046531;28;1359;-71
2022/03/19 05:38:39;;;;;;;;;;;19.10;57.40;;;;;;5033770;28;896;-73
2022/03/19 05:41:04;;;;;;;;;;;19.10;57.40;;;;;;5033505;28;886;-71
2022/03/19 05:43:30;;;;;;;;;;;19.10;57.40;;;;;;5033685;28;994;-67
2022/03/19 05:45:55;;;;;;;;;;;19.10;57.40;;;;;;5033389;28;1212;-67
2022/03/19 05:48:21;;;;;;;;;;;19.10;57.40;;;;;;5033561;28;698;-66
2022/03/19 05:50:46;;;;;;;;;;;19.10;57.30;;;;;;5033573;28;830;-69
2022/03/19 05:53:12;;;;;;;;;;;19.10;57.30;;;;;;5033399;28;1947;-70
2022/03/19 05:55:37;;;;;;;;;;;19.10;57.30;;;;;;5033051;28;1073;-71
2022/03/19 05:58:02;;;;;;;;;;;19.10;57.30;;;;;;5033426;28;1287;-69
2022/03/19 06:00:28;;;;;;;;;;;19.10;57.40;;;;;;5048669;28;979;-68
2022/03/19 06:02:53;;;;;;;;;;;19.10;57.30;;;;;;5033332;28;1029;-68
2022/03/19 06:05:19;;;;;;;;;;;19.10;57.40;;;;;;5033297;28;983;-72
2022/03/19 06:07:44;;;;;;;;;;;19.10;57.30;;;;;;5048457;28;1181;-69
2022/03/19 06:10:10;;;;;;;;;;;19.10;57.40;;;;;;5032935;28;792;-69
2022/03/19 06:12:35;;;;;;;;;;;19.10;57.40;;;;;;5033136;28;1894;-69
2022/03/19 06:15:00;;;;;;;;;;;19.10;57.40;;;;;;5033144;28;1095;-67
2022/03/19 06:17:26;;;;;;;;;;;19.10;57.40;;;;;;5032912;28;1222;-67
2022/03/19 06:19:51;;;;;;;;;;;19.10;57.40;;;;;;5033136;28;780;-67
2022/03/19 06:22:17;;;;;;;;;;;19.10;57.30;;;;;;5033146;28;804;-68
2022/03/19 06:24:42;;;;;;;;;;;19.10;57.30;;;;;;5032808;28;847;-71
2022/03/19 06:27:08;;;;;;;;;;;19.10;57.40;;;;;;5032453;28;1292;-68
2022/03/19 06:29:33;;;;;;;;;;;19.10;57.40;;;;;;5033048;28;871;-67
2022/03/19 06:31:58;;;;;;;;;;;19.10;57.40;;;;;;5028440;28;2135;-67
2022/03/19 06:34:24;;;;;;;;;;;19.10;57.30;;;;;;5027830;28;914;-67
2022/03/19 06:39:33;;;;;;;;;;;19.10;57.30;;;;;;5032976;28;729;-70
2022/03/19 06:41:59;;;;;;;;;;;19.10;57.30;;;;;;5048323;28;863;-69
2022/03/19 06:44:24;;;;;;;;;;;19.10;57.30;;;;;;5032966;28;690;-68
2022/03/19 06:46:50;;;;;;;;;;;19.10;57.30;;;;;;5032476;28;1222;-69
2022/03/19 06:49:15;;;;;;;;;;;19.10;57.40;;;;;;5032984;28;883;-70
2022/03/19 06:51:41;;;;;;;;;;;19.10;57.30;;;;;;5032710;28;1919;-69
2022/03/19 06:54:06;;;;;;;;;;;19.10;57.30;;;;;;5032695;28;935;-71
2022/03/19 06:56:31;;;;;;;;;;;19.10;57.30;;;;;;5032392;28;1220;-72
2022/03/19 06:58:57;;;;;;;;;;;19.10;57.30;;;;;;5032846;28;891;-72
2022/03/19 07:01:22;;;;;;;;;;;19.10;57.30;;;;;;5048100;28;819;-71
2022/03/19 07:03:48;;;;;;;;;;;19.10;57.30;;;;;;5032673;28;675;-72
2022/03/19 07:06:15;;;;;;;;;;;19.10;57.30;;;;;;5047732;28;1198;-71
2022/03/19 07:08:41;;;;;;;;;;;19.10;57.30;;;;;;5032542;28;945;-71
2022/03/19 07:11:06;;;;;;;;;;;19.10;57.30;;;;;;5025136;28;1663;-69
2022/03/19 07:13:31;;;;;;;;;;;19.10;57.30;;;;;;5017842;28;1891;-70
2022/03/19 07:15:57;;;;;;;;;;;19.10;57.30;;;;;;5032178;28;1306;-68
2022/03/19 07:18:23;;;;;;;;;;;19.10;57.30;;;;;;5032359;28;1080;-70
2022/03/19 07:20:50;;;;;;;;;;;19.10;57.30;;;;;;5032463;28;1322;-71
2022/03/19 07:23:15;;;;;;;;;;;19.10;57.30;;;;;;5033153;28;693;-71
2022/03/19 07:25:41;;;;;;;;;;;19.10;57.30;;;;;;5031030;28;1275;-72
2022/03/19 07:28:08;;;;;;;;;;;19.10;57.30;;;;;;5032355;28;831;-70
2022/03/19 07:30:34;;;;;;;;;;;19.10;57.30;;;;;;5032427;28;808;-70
2022/03/19 07:32:59;;;;;;;;;;;19.10;57.30;;;;;;5031088;28;1906;-70
2022/03/19 07:35:25;;;;;;;;;;;19.10;57.30;;;;;;5032247;28;844;-70
2022/03/19 07:37:50;;;;;;;;;;;19.10;57.40;;;;;;5032043;28;1257;-70
2022/03/19 07:41:45;;;;;;;;;;;19.10;57.30;;;;;;5035856;28;926;-70
2022/03/19 07:43:06;;;;;;;;;;;19.10;57.30;;;;;;5048372;28;1003;-69
2022/03/19 07:45:31;;;;;;;;;;;19.10;57.30;;;;;;5035434;28;1056;-69
2022/03/19 07:47:57;;;;;;;;;;;19.10;57.30;;;;;;5034493;28;1262;-72
2022/03/19 07:50:22;;;;;;;;;;;19.10;57.40;;;;;;5034923;28;1033;-71
2022/03/19 07:52:48;;;;;;;;;;;19.10;57.30;;;;;;5035853;28;1967;-72
2022/03/19 07:55:13;;;;;;;;;;;19.20;57.30;;;;;;5051082;28;891;-71
2022/03/19 07:57:38;;;;;;;;;;;19.30;57.20;;;;;;5035528;28;1180;-72
2022/03/19 08:00:04;;;;;;;;;;;19.30;57.00;;;;;;5035623;28;1010;-69
2022/03/19 08:02:30;;;;;;;;;;;19.50;56.90;;;;;;5051103;28;906;-69
2022/03/19 08:04:55;;;;;;;;;;;19.60;56.70;;;;;;5035392;28;941;-69
2022/03/19 08:07:22;;;;;;;;;;;19.70;56.40;;;;;;5035236;28;1288;-69
2022/03/19 08:09:47;;;;;;;;;;;19.90;56.20;;;;;;5035558;28;846;-69
2022/03/19 08:12:13;;;;;;;;;;;20.00;55.90;;;;;;5035322;28;1902;-69
2022/03/19 08:14:39;;;;;;;;;;;20.10;55.60;;;;;;5035342;28;1230;-69
2022/03/19 08:17:05;;;;;;;;;;;20.20;55.30;;;;;;5034873;28;1307;-69
2022/03/19 08:19:31;;;;;;;;;;;20.30;55.10;;;;;;5050808;28;919;-69
2022/03/19 08:21:56;;;;;;;;;;;20.40;54.90;;;;;;5035234;28;910;-69
2022/03/19 08:24:23;;;;;;;;;;;20.50;54.70;;;;;;5035431;28;854;-69
2022/03/19 08:26:48;;;;;;;;;;;20.50;54.50;;;;;;5034846;28;1347;-69
2022/03/19 08:29:14;;;;;;;;;;;20.60;54.40;;;;;;5035193;28;788;-69
2022/03/19 08:31:39;;;;;;;;;;;20.60;54.30;;;;;;5034925;28;2275;-69
2022/03/19 08:34:05;;;;;;;;;;;20.70;54.20;;;;;;5034941;28;1054;-69
2022/03/19 08:36:30;;;;;;;;;;;20.70;54.10;;;;;;5034786;28;1355;-69
2022/03/19 08:41:40;;;;;;;;;;;20.80;54.00;;;;;;5034901;28;614;-69
2022/03/19 08:44:05;;;;;;;;;;;20.80;54.10;;;;;;5035027;28;919;-69
2022/03/19 08:46:31;;;;;;;;;;;20.80;54.00;;;;;;5034266;28;1266;-69
2022/03/19 08:48:56;;;;;;;;;;;20.80;54.10;;;;;;5050209;28;966;-69
2022/03/19 08:51:40;;;;;;;;;;;20.80;54.70;;;;;;5034524;28;1902;-69
2022/03/19 08:54:09;;;;;;;;;;;20.80;54.10;;;;;;5034749;28;907;-69
2022/03/19 08:56:34;;;;;;;;;;;20.80;54.10;;;;;;5049699;28;1306;-70
2022/03/19 08:59:00;;;;;;;;;;;20.80;54.20;;;;;;5046333;28;1748;-70
2022/03/19 09:01:25;;;;;;;;;;;20.80;54.20;;;;;;5024781;28;1636;-69
2022/03/19 09:03:51;;;;;;;;;;;20.80;54.10;;;;;;5034278;28;1164;-70
2022/03/19 09:06:17;;;;;;;;;;;20.80;54.10;;;;;;5033992;28;1294;-70
2022/03/19 09:08:42;;;;;;;;;;;20.80;54.10;;;;;;5034218;28;815;-70
2022/03/19 09:11:08;;;;;;;;;;;20.80;54.20;;;;;;5034395;28;1021;-70
2022/03/19 09:13:33;;;;;;;;;;;20.70;54.20;;;;;;5033801;28;1952;-70
2022/03/19 09:15:59;;;;;;;;;;;20.70;54.20;;;;;;5049415;28;1284;-70
2022/03/19 09:18:25;;;;;;;;;;;20.70;54.30;;;;;;5049384;28;1222;-68
2022/03/19 09:20:50;;;;;;;;;;;20.60;54.30;;;;;;5033169;28;1458;-70
2022/03/19 09:23:16;;;;;;;;;;;20.70;54.40;;;;;;5034279;28;985;-70
2022/03/19 09:25:42;;;;;;;;;;;20.60;54.40;;;;;;5033945;28;1311;-70
2022/03/19 09:28:07;;;;;;;;;;;20.60;54.50;;;;;;5033745;28;823;-70
2022/03/19 09:30:33;;;;;;;;;;;20.60;54.50;;;;;;5034294;28;1025;-69
2022/03/19 09:32:58;;;;;;;;;;;20.60;54.50;;;;;;5033702;28;1906;-69
2022/03/19 09:35:24;;;;;;;;;;;20.50;54.60;;;;;;5033991;28;857;-68
2022/03/19 09:37:49;;;;;;;;;;;20.50;54.70;;;;;;5048772;28;1282;-69
2022/03/19 09:40:14;;;;;;;;;;;20.50;54.70;;;;;;5033699;28;809;-68
2022/03/19 09:42:47;;;;;;;;;;;20.50;54.80;;;;;;5033469;28;884;-68
2022/03/19 09:45:12;;;;;;;;;;;20.50;54.90;;;;;;5049012;28;1069;-68
2022/03/19 09:47:38;;;;;;;;;;;20.50;54.90;;;;;;5033319;28;1307;-69
2022/03/19 09:50:03;;;;;;;;;;;20.50;55.00;;;;;;5033468;28;788;-69
2022/03/19 09:52:29;;;;;;;;;;;20.40;55.00;;;;;;5033390;28;1952;-69
2022/03/19 09:54:57;;;;;;;;;;;20.40;55.00;;;;;;5048833;28;1207;-69
2022/03/19 09:57:23;;;;;;;;;;;20.40;55.00;;;;;;5032429;28;1269;-69
2022/03/19 09:59:48;;;;;;;;;;;20.40;55.10;;;;;;5048303;28;914;-69
2022/03/19 10:02:15;;;;;;;;;;;20.40;55.20;;;;;;5033451;28;918;-69
2022/03/19 10:04:40;;;;;;;;;;;20.40;55.20;;;;;;5033371;28;874;-69
2022/03/19 10:09:50;;;;;;;;;;;20.30;55.30;;;;;;5032952;28;1206;-69
2022/03/19 10:12:16;;;;;;;;;;;20.30;55.40;;;;;;5031788;28;1894;-69
2022/03/19 10:14:44;;;;;;;;;;;20.30;55.40;;;;;;5031870;28;1160;-68
2022/03/19 10:17:10;;;;;;;;;;;20.30;55.40;;;;;;5032621;28;1221;-69
2022/03/19 10:19:48;;;;;;;;;;;20.20;55.40;;;;;;5048674;28;955;-69
2022/03/19 10:22:14;;;;;;;;;;;20.20;55.50;;;;;;5048002;28;799;-69
2022/03/19 10:24:39;;;;;;;;;;;20.20;55.50;;;;;;5048456;28;1279;-70
2022/03/19 10:27:04;;;;;;;;;;;20.20;55.60;;;;;;5032767;28;1336;-70
2022/03/19 10:29:33;;;;;;;;;;;20.20;55.60;;;;;;5031747;28;800;-70
2022/03/19 10:32:04;;;;;;;;;;;20.20;55.60;;;;;;5031585;28;1970;-70
2022/03/19 10:34:30;;;;;;;;;;;20.20;55.70;;;;;;5032993;28;847;-70
2022/03/19 10:36:56;;;;;;;;;;;20.20;55.70;;;;;;5030784;28;1272;-69
2022/03/19 10:39:22;;;;;;;;;;;20.10;55.70;;;;;;5048320;28;1021;-71
2022/03/19 10:41:47;;;;;;;;;;;20.10;55.70;;;;;;5048592;28;858;-71
2022/03/19 10:44:14;;;;;;;;;;;20.10;55.80;;;;;;5048107;28;978;-71
2022/03/19 10:46:43;;;;;;;;;;;20.10;55.80;;;;;;5047978;28;1282;-71
2022/03/19 10:49:12;;;;;;;;;;;20.10;55.80;;;;;;5047050;28;2424;-71
2022/03/19 10:51:39;;;;;;;;;;;20.10;55.90;;;;;;5024257;28;1894;-71
2022/03/19 10:54:04;;;;;;;;;;;20.10;55.90;;;;;;5031575;28;1249;-71
2022/03/19 10:56:30;;;;;;;;;;;20.10;55.90;;;;;;5048103;28;1219;-71
2022/03/19 10:58:55;;;;;;;;;;;20.10;56.00;;;;;;5032635;28;891;-71
2022/03/19 11:01:21;;;;;;;;;;;20.10;55.90;;;;;;5032538;28;1180;-71
2022/03/19 11:03:46;;;;;;;;;;;20.10;55.90;;;;;;5031260;28;930;-71
2022/03/19 11:06:12;;;;;;;;;;;20.10;55.90;;;;;;5036019;28;1427;-70
2022/03/19 11:08:44;;;;;;;;;;;20.10;55.90;;;;;;5031327;28;849;-71
2022/03/19 11:11:32;;;;;;;;;;;20.10;55.80;;;;;;5019924;28;2162;-70
2022/03/19 11:13:58;;;;;;;;;;;20.10;55.80;;;;;;5027064;28;1516;-70
2022/03/19 11:16:23;;;;;;;;;;;20.10;55.80;;;;;;5033285;28;1625;-70
2022/03/19 11:18:52;;;;;;;;;;;20.10;55.80;;;;;;5051347;28;1422;-70
2022/03/19 11:21:17;;;;;;;;;;;20.20;55.80;;;;;;5030536;28;1556;-70
2022/03/19 11:23:46;;;;;;;;;;;20.10;55.80;;;;;;5051729;28;1074;-70
2022/03/19 11:26:11;;;;;;;;;;;20.10;55.80;;;;;;5051434;28;1311;-70
2022/03/19 11:28:37;;;;;;;;;;;20.10;55.80;;;;;;5051290;28;2175;-70
2022/03/19 11:31:04;;;;;;;;;;;20.10;55.80;;;;;;5051326;28;1205;-70
2022/03/19 11:33:32;;;;;;;;;;;20.10;55.80;;;;;;5036000;28;1981;-70
2022/03/19 11:36:01;;;;;;;;;;;20.10;55.80;;;;;;5050882;28;1376;-68
2022/03/19 11:38:26;;;;;;;;;;;20.10;55.80;;;;;;5036331;28;1091;-69
2022/03/19 11:40:55;;;;;;;;;;;20.10;55.80;;;;;;5051481;28;1061;-71
2022/03/19 11:43:24;;;;;;;;;;;20.10;55.80;;;;;;5051035;28;804;-71
2022/03/19 11:46:00;;;;;;;;;;;20.10;55.80;;;;;;5035466;28;1197;-70
2022/03/19 11:48:37;;;;;;;;;;;20.10;55.90;;;;;;5035926;28;843;-71
2022/03/19 11:51:15;;;;;;;;;;;20.10;55.90;;;;;;5035778;28;824;-71
2022/03/19 11:53:55;;;;;;;;;;;20.10;55.90;;;;;;5035941;28;1983;-71
2022/03/19 11:56:21;;;;;;;;;;;20.10;56.00;;;;;;5035387;28;1211;-70
2022/03/19 11:58:47;;;;;;;;;;;20.10;56.00;;;;;;5048469;28;1105;-71
2022/03/19 12:01:13;;;;;;;;;;;20.00;55.90;;;;;;5050249;28;1141;-71
2022/03/19 12:04:01;;;;;;;;;;;20.00;55.90;;;;;;5051040;28;906;-71
2022/03/19 12:06:30;;;;;;;;;;;20.00;56.00;;;;;;5035182;28;1209;-71
2022/03/19 12:08:56;;;;;;;;;;;20.00;56.00;;;;;;5049630;28;968;-71
2022/03/19 12:11:22;;;;;;;;;;;20.00;56.10;;;;;;5034045;28;851;-69
2022/03/19 12:13:50;;;;;;;;;;;20.00;56.10;;;;;;5031864;28;2219;-70
2022/03/19 12:16:35;;;;;;;;;;;20.00;56.10;;;;;;5050002;28;1306;-70
2022/03/19 12:19:01;;;;;;;;;;;20.00;56.10;;;;;;5033433;28;1451;-70
2022/03/19 12:21:26;;;;;;;;;;;20.00;56.10;;;;;;5049171;28;972;-70
2022/03/19 12:24:08;;;;;;;;;;;20.00;56.10;;;;;;5035103;28;1102;-71
2022/03/19 12:26:38;;;;;;;;;;;19.90;56.10;;;;;;5035218;28;1203;-70
2022/03/19 12:29:04;;;;;;;;;;;19.90;56.10;;;;;;5050790;28;831;-70
2022/03/19 12:31:33;;;;;;;;;;;20.00;56.20;;;;;;5050476;28;1902;-69
2022/03/19 12:33:59;;;;;;;;;;;20.00;56.10;;;;;;5050281;28;1084;-70
2022/03/19 12:36:24;;;;;;;;;;;20.00;56.10;;;;;;5035053;28;1208;-70
2022/03/19 12:38:52;;;;;;;;;;;20.10;56.10;;;;;;5033663;28;1282;-70
2022/03/19 12:41:26;;;;;;;;;;;20.10;55.90;;;;;;5050265;28;851;-69
2022/03/19 12:43:51;;;;;;;;;;;20.10;55.90;;;;;;5034893;28;831;-70
2022/03/19 12:46:26;;;;;;;;;;;20.10;55.80;;;;;;5034858;28;1212;-70
2022/03/19 12:49:00;;;;;;;;;;;20.20;55.80;;;;;;5034772;28;844;-70
2022/03/19 12:51:25;;;;;;;;;;;20.20;55.70;;;;;;5050454;28;1017;-70
2022/03/19 12:53:51;;;;;;;;;;;20.20;55.60;;;;;;5050003;28;1898;-70
2022/03/19 12:56:16;;;;;;;;;;;20.20;55.60;;;;;;5032018;28;1276;-69
2022/03/19 12:58:43;;;;;;;;;;;20.20;55.60;;;;;;5034623;28;831;-69
2022/03/19 13:01:12;;;;;;;;;;;20.20;55.50;;;;;;5033458;28;797;-70
2022/03/19 13:03:38;;;;;;;;;;;20.20;55.50;;;;;;5034549;28;1046;-69
2022/03/19 13:06:03;;;;;;;;;;;20.20;55.50;;;;;;5033197;28;1210;-69
2022/03/19 13:08:28;;;;;;;;;;;20.30;55.50;;;;;;5033212;28;1082;-70
2022/03/19 13:10:54;;;;;;;;;;;20.30;55.50;;;;;;5034167;28;1014;-70
2022/03/19 13:13:19;;;;;;;;;;;20.30;55.50;;;;;;5034239;28;1953;-70
2022/03/19 13:15:48;;;;;;;;;;;20.20;55.50;;;;;;5034192;28;1217;-70
2022/03/19 13:18:24;;;;;;;;;;;20.30;55.50;;;;;;5049509;28;919;-70
2022/03/19 13:21:00;;;;;;;;;;;20.20;55.50;;;;;;5049537;28;950;-72
2022/03/19 13:23:26;;;;;;;;;;;20.20;55.50;;;;;;5034248;28;799;-72
2022/03/19 13:25:51;;;;;;;;;;;20.20;55.50;;;;;;5033664;28;1194;-72
2022/03/19 13:28:16;;;;;;;;;;;20.20;55.50;;;;;;5049464;28;790;-72
2022/03/19 13:30:46;;;;;;;;;;;20.20;55.20;;;;;;5033914;28;703;-72
2022/03/19 13:33:15;;;;;;;;;;;20.20;54.70;;;;;;5033953;28;1942;-69
2022/03/19 13:35:42;;;;;;;;;;;20.20;54.80;;;;;;5048100;28;1110;-69
2022/03/19 13:38:10;;;;;;;;;;;20.20;54.80;;;;;;5033776;28;831;-69
2022/03/19 13:40:37;;;;;;;;;;;20.20;54.90;;;;;;5033830;28;886;-69
2022/03/19 13:43:02;;;;;;;;;;;20.20;54.80;;;;;;5049247;28;913;-68
2022/03/19 13:45:27;;;;;;;;;;;20.20;54.90;;;;;;5032446;28;886;-69
2022/03/19 13:48:00;;;;;;;;;;;20.20;55.00;;;;;;5033415;28;1187;-69
2022/03/19 13:50:25;;;;;;;;;;;20.20;55.00;;;;;;5049214;28;1013;-69
2022/03/19 13:52:55;;;;;;;;;;;20.20;55.10;;;;;;5033278;28;1917;-69
2022/03/19 13:55:20;;;;;;;;;;;20.10;55.10;;;;;;5033674;28;796;-69
2022/03/19 13:57:47;;;;;;;;;;;20.10;55.20;;;;;;5029088;28;1208;-69
2022/03/19 14:00:17;;;;;;;;;;;20.10;55.30;;;;;;5047226;28;1198;-69
2022/03/19 14:02:51;;;;;;;;;;;20.10;55.30;;;;;;5031905;28;866;-69
2022/03/19 14:05:19;;;;;;;;;;;20.10;55.30;;;;;;5032015;28;867;-69
2022/03/19 14:07:44;;;;;;;;;;;20.10;55.40;;;;;;5046733;28;1373;-69
2022/03/19 14:10:10;;;;;;;;;;;20.10;55.50;;;;;;5033582;28;1021;-69
2022/03/19 14:12:37;;;;;;;;;;;20.10;55.50;;;;;;5033312;28;1954;-69
2022/03/19 14:15:02;;;;;;;;;;;20.00;55.50;;;;;;5048374;28;1150;-69
2022/03/19 14:17:48;;;;;;;;;;;20.00;55.60;;;;;;5032523;28;1222;-69
2022/03/19 14:20:14;;;;;;;;;;;20.00;55.60;;;;;;5031825;28;2254;-69
2022/03/19 14:22:39;;;;;;;;;;;20.00;55.70;;;;;;5032438;28;1140;-69
2022/03/19 14:25:05;;;;;;;;;;;20.00;55.70;;;;;;5048348;28;1154;-69
2022/03/19 14:27:30;;;;;;;;;;;20.00;55.70;;;;;;5031825;28;1354;-69
2022/03/19 14:29:57;;;;;;;;;;;20.00;55.80;;;;;;5032214;28;851;-69
2022/03/19 14:32:22;;;;;;;;;;;20.00;55.80;;;;;;5032608;28;1964;-69
2022/03/19 14:34:47;;;;;;;;;;;20.00;55.90;;;;;;5031594;28;955;-69
2022/03/19 14:37:13;;;;;;;;;;;19.90;55.80;;;;;;5032606;28;1365;-69
2022/03/19 14:39:38;;;;;;;;;;;19.90;55.90;;;;;;5032610;28;812;-69
2022/03/19 14:42:04;;;;;;;;;;;19.90;55.90;;;;;;5032994;28;827;-69
2022/03/19 14:44:29;;;;;;;;;;;19.90;55.90;;;;;;5032383;28;1089;-69
2022/03/19 14:46:55;;;;;;;;;;;19.90;56.00;;;;;;5034044;28;1286;-69
2022/03/19 14:49:20;;;;;;;;;;;19.90;56.00;;;;;;5036710;28;726;-69